| time (UTC) | temp C | wind direction | speed KPH | gust KPH | rain 1hr cm | rain 24hr cm | rain mn cm | humidity % | barometer mb |
| 20260505180730 | 29 | 180 | 17.7 | 35.4 | 0.00 | 0.00 | 0.00 | 34 | 1006.7 |
| 20260505180229 | 29 | 187 | 16.1 | 35.4 | 0.00 | 0.00 | 0.00 | 33 | 1007.0 |
| 20260505175730 | 29 | 213 | 16.1 | 30.6 | 0.00 | 0.00 | 0.00 | 34 | 1007.0 |
| 20260505175510 | 29 | 254 | 16.1 | 32.2 | 0.00 | 0.00 | 0.00 | 35 | 1006.9 |
| 20260505174728 | 29 | 178 | 14.5 | 32.2 | 0.00 | 0.00 | 0.00 | 34 | 1007.0 |
| 20260505174229 | 29 | 218 | 14.5 | 32.2 | 0.00 | 0.00 | 0.00 | 35 | 1007.1 |
| 20260505173728 | 28 | 225 | 12.9 | 32.2 | 0.00 | 0.00 | 0.00 | 35 | 1007.0 |
| 20260505173229 | 28 | 217 | 14.5 | 30.6 | 0.00 | 0.00 | 0.00 | 35 | 1007.0 |
| 20260505172729 | 28 | 197 | 14.5 | 30.6 | 0.00 | 0.00 | 0.00 | 35 | 1007.1 |
| 20260505172229 | 28 | 202 | 12.9 | 29.0 | 0.00 | 0.00 | 0.00 | 37 | 1007.4 |
| 20260505171730 | 28 | 219 | 14.5 | 29.0 | 0.00 | 0.00 | 0.00 | 36 | 1007.3 |
| 20260505171228 | 28 | 180 | 14.5 | 27.4 | 0.00 | 0.00 | 0.00 | 37 | 1007.4 |
| 20260505170730 | 28 | 247 | 14.5 | 32.2 | 0.00 | 0.00 | 0.00 | 37 | 1007.3 |
| 20260505170229 | 28 | 241 | 14.5 | 32.2 | 0.00 | 0.00 | 0.00 | 37 | 1007.4 |
| 20260505165729 | 28 | 215 | 12.9 | 27.4 | 0.00 | 0.00 | 0.00 | 37 | 1007.4 |
| 20260505165229 | 28 | 224 | 12.9 | 27.4 | 0.00 | 0.00 | 0.00 | 38 | 1007.4 |
| 20260505164729 | 27 | 273 | 12.9 | 25.7 | 0.00 | 0.00 | 0.00 | 38 | 1007.6 |
| 20260505164229 | 27 | 250 | 14.5 | 29.0 | 0.00 | 0.00 | 0.00 | 38 | 1007.6 |
| 20260505163849 | 28 | 263 | 12.9 | 27.4 | 0.00 | 0.00 | 0.00 | 38 | 1007.9 |
| 20260505163844 | 28 | 251 | 11.3 | 25.7 | 0.00 | 0.00 | 0.00 | 38 | 1007.9 |
| 20260505163826 | 28 | 233 | 14.5 | 29.0 | 0.00 | 0.00 | 0.00 | 38 | 1007.8 |
| 20260505162231 | 27 | 212 | 11.3 | 22.5 | 0.00 | 0.00 | 0.00 | 39 | 1007.9 |
| 20260505161724 | 27 | 224 | 12.9 | 25.7 | 0.00 | 0.00 | 0.00 | 39 | 1008.1 |
| 20260505161214 | 27 | 242 | 11.3 | 25.7 | 0.00 | 0.00 | 0.00 | 39 | 1008.2 |
| 20260505160708 | 27 | 196 | 9.7 | 20.9 | 0.00 | 0.00 | 0.00 | 39 | 1008.1 |
| 20260505160204 | 27 | 188 | 9.7 | 20.9 | 0.00 | 0.00 | 0.00 | 39 | 1008.2 |
| 20260505153202 | 26 | 202 | 11.3 | 25.7 | 0.00 | 0.00 | 0.00 | 40 | 1008.4 |
| 20260505152702 | 26 | 284 | 11.3 | 29.0 | 0.00 | 0.00 | 0.00 | 40 | 1008.3 |
| 20260505152202 | 26 | 198 | 9.7 | 29.0 | 0.00 | 0.00 | 0.00 | 40 | 1008.4 |
| 20260505151701 | 26 | 187 | 8.0 | 20.9 | 0.00 | 0.00 | 0.00 | 43 | 1008.3 |
| 20260505151442 | 25 | 214 | 9.7 | 20.9 | 0.00 | 0.00 | 0.00 | 42 | 1008.5 |
| 20260505150946 | 25 | 244 | 8.0 | 20.9 | 0.00 | 0.00 | 0.00 | 43 | 1008.4 |
| 20260505150202 | 25 | 198 | 9.7 | 20.9 | 0.00 | 0.00 | 0.00 | 42 | 1008.6 |
| 20260505140202 | 23 | 230 | 11.3 | 24.1 | 0.00 | 0.00 | 0.00 | 49 | 1009.0 |
| 20260505130201 | 20 | 200 | 8.0 | 22.5 | 0.00 | 0.00 | 0.00 | 59 | 1009.0 |
| 20260505124701 | 20 | 227 | 8.0 | 17.7 | 0.00 | 0.00 | 0.00 | 61 | 1009.1 |
| 20260505124202 | 19 | 198 | 9.7 | 20.9 | 0.00 | 0.00 | 0.00 | 63 | 1009.1 |
| 20260505123700 | 19 | 217 | 9.7 | 20.9 | 0.00 | 0.00 | 0.00 | 63 | 1009.0 |
| 20260505123202 | 18 | 248 | 4.8 | 14.5 | 0.00 | 0.00 | 0.00 | 64 | 1009.0 |
| 20260505122702 | 18 | 217 | 4.8 | 11.3 | 0.00 | 0.00 | 0.00 | 66 | 1008.9 |
| 20260505122202 | 18 | 240 | 6.4 | 14.5 | 0.00 | 0.00 | 0.00 | 68 | 1009.0 |
| 20260505121701 | 17 | 234 | 4.8 | 14.5 | 0.00 | 0.00 | 0.00 | 69 | 1008.9 |
| 20260505121202 | 17 | 225 | 3.2 | 8.0 | 0.00 | 0.00 | 0.00 | 70 | 1009.0 |
| 20260505120702 | 17 | 227 | 3.2 | 9.7 | 0.00 | 0.00 | 0.00 | 71 | 1008.9 |
| 20260505120201 | 17 | 221 | 4.8 | 9.7 | 0.00 | 0.00 | 0.00 | 72 | 1008.9 |
| 20260505115704 | 17 | 232 | 3.2 | 9.7 | 0.00 | 0.00 | 0.00 | 72 | 1008.9 |
| 20260505115203 | 16 | 201 | 3.2 | 8.0 | 0.00 | 0.00 | 0.00 | 73 | 1008.9 |
| 20260505114702 | 16 | 246 | 3.2 | 8.0 | 0.00 | 0.00 | 0.00 | 73 | 1008.9 |
| 20260505114202 | 16 | 231 | 1.6 | 6.4 | 0.00 | 0.00 | 0.00 | 73 | 1008.9 |
| 20260505113948 | 16 | 223 | 3.2 | 9.7 | 0.00 | 0.00 | 0.00 | 73 | 1009.0 |
| 20260505113201 | 16 | 271 | 6.4 | 11.3 | 0.00 | 0.00 | 0.00 | 72 | 1009.0 |
| 20260505112703 | 16 | 255 | 6.4 | 14.5 | 0.00 | 0.00 | 0.00 | 72 | 1009.0 |
| 20260505112202 | 16 | 238 | 4.8 | 14.5 | 0.00 | 0.00 | 0.00 | 72 | 1009.0 |
| 20260505111702 | 16 | 228 | 4.8 | 14.5 | 0.00 | 0.00 | 0.00 | 72 | 1009.0 |
| 20260505111206 | 16 | 237 | 4.8 | 14.5 | 0.00 | 0.00 | 0.00 | 72 | 1009.0 |
| 20260505110946 | 16 | 216 | 4.8 | 9.7 | 0.00 | 0.00 | 0.00 | 72 | 1009.0 |
| 20260505110203 | 16 | 242 | 4.8 | 17.7 | 0.00 | 0.00 | 0.00 | 72 | 1009.1 |
| 20260505101701 | 16 | 194 | 11.3 | 29.0 | 0.00 | 0.00 | 0.00 | 70 | 1008.1 |
| 20260505101201 | 16 | 198 | 12.9 | 29.0 | 0.00 | 0.00 | 0.00 | 70 | 1007.8 |
| 20260505100937 | 16 | 243 | 12.9 | 25.7 | 0.00 | 0.00 | 0.00 | 70 | 1007.8 |
| 20260505100200 | 16 | 265 | 11.3 | 25.7 | 0.00 | 0.00 | 0.00 | 70 | 1007.8 |
| 20260505095701 | 16 | 234 | 12.9 | 24.1 | 0.00 | 0.00 | 0.00 | 69 | 1007.8 |
| 20260505095203 | 16 | 201 | 12.9 | 24.1 | 0.00 | 0.00 | 0.00 | 69 | 1007.8 |
| 20260505094701 | 16 | 229 | 12.9 | 24.1 | 0.00 | 0.00 | 0.00 | 68 | 1007.8 |
| 20260505094201 | 17 | 248 | 12.9 | 24.1 | 0.00 | 0.00 | 0.00 | 68 | 1007.8 |
| 20260505093700 | 17 | 187 | 14.5 | 24.1 | 0.00 | 0.00 | 0.00 | 68 | 1007.7 |
| 20260505093201 | 17 | 212 | 14.5 | 25.7 | 0.00 | 0.00 | 0.00 | 68 | 1007.8 |
| 20260505092700 | 17 | 234 | 14.5 | 29.0 | 0.00 | 0.00 | 0.00 | 68 | 1007.7 |
| 20260505092202 | 17 | 179 | 12.9 | 29.0 | 0.00 | 0.00 | 0.00 | 68 | 1007.7 |
| 20260505091944 | 16 | 208 | 11.3 | 22.5 | 0.00 | 0.00 | 0.00 | 68 | 1007.8 |
| 20260505091444 | 16 | 222 | 11.3 | 22.5 | 0.00 | 0.00 | 0.00 | 68 | 1007.7 |
| 20260505090701 | 16 | 181 | 9.7 | 20.9 | 0.00 | 0.00 | 0.00 | 68 | 1007.6 |
| 20260505090442 | 16 | 244 | 9.7 | 20.9 | 0.00 | 0.00 | 0.00 | 68 | 1007.5 |
| 20260505085700 | 16 | 160 | 9.7 | 22.5 | 0.00 | 0.00 | 0.00 | 68 | 1007.6 |
| 20260505085201 | 16 | 234 | 9.7 | 22.5 | 0.00 | 0.00 | 0.00 | 68 | 1007.7 |
| 20260505084947 | 16 | 221 | 9.7 | 22.5 | 0.00 | 0.00 | 0.00 | 69 | 1007.6 |
| 20260505084201 | 16 | 184 | 9.7 | 20.9 | 0.00 | 0.00 | 0.00 | 68 | 1007.6 |
| 20260505083700 | 16 | 215 | 11.3 | 20.9 | 0.00 | 0.00 | 0.00 | 68 | 1007.8 |
| 20260505083201 | 16 | 204 | 11.3 | 22.5 | 0.00 | 0.00 | 0.00 | 68 | 1007.7 |
| 20260505082701 | 16 | 226 | 11.3 | 22.5 | 0.00 | 0.00 | 0.00 | 68 | 1007.7 |
| 20260505082200 | 16 | 231 | 9.7 | 25.7 | 0.00 | 0.00 | 0.00 | 68 | 1007.7 |
| 20260505081701 | 16 | 195 | 8.0 | 25.7 | 0.00 | 0.00 | 0.00 | 68 | 1007.7 |
| 20260505081202 | 16 | 223 | 8.0 | 20.9 | 0.00 | 0.00 | 0.00 | 68 | 1007.7 |
| 20260505080700 | 16 | 209 | 8.0 | 20.9 | 0.00 | 0.00 | 0.00 | 68 | 1007.7 |
| 20260505080200 | 16 | 191 | 9.7 | 19.3 | 0.00 | 0.00 | 0.00 | 68 | 1007.7 |
| 20260505075943 | 16 | 222 | 11.3 | 17.7 | 0.00 | 0.00 | 0.00 | 68 | 1007.7 |
| 20260505075202 | 16 | 207 | 9.7 | 20.9 | 0.00 | 0.00 | 0.00 | 68 | 1007.7 |
| 20260505074702 | 16 | 230 | 9.7 | 20.9 | 0.00 | 0.00 | 0.00 | 68 | 1007.7 |
| 20260505074203 | 16 | 234 | 9.7 | 19.3 | 0.00 | 0.00 | 0.00 | 67 | 1007.6 |
| 20260505073703 | 16 | 197 | 8.0 | 19.3 | 0.00 | 0.00 | 0.00 | 67 | 1007.6 |
| 20260505073201 | 16 | 182 | 8.0 | 20.9 | 0.00 | 0.00 | 0.00 | 67 | 1007.6 |
| 20260505072702 | 16 | 207 | 9.7 | 20.9 | 0.00 | 0.00 | 0.00 | 67 | 1007.5 |
| 20260505072447 | 16 | 201 | 8.0 | 19.3 | 0.00 | 0.00 | 0.00 | 67 | 1007.4 |
| 20260505071702 | 16 | 219 | 9.7 | 17.7 | 0.00 | 0.00 | 0.00 | 67 | 1007.4 |
| 20260505071203 | 16 | 199 | 9.7 | 25.7 | 0.00 | 0.00 | 0.00 | 67 | 1007.4 |
| 20260505070945 | 16 | 216 | 11.3 | 25.7 | 0.00 | 0.00 | 0.00 | 67 | 1007.4 |
| 20260505070202 | 16 | 178 | 11.3 | 20.9 | 0.00 | 0.00 | 0.00 | 67 | 1007.4 |
| 20260505065946 | 16 | 165 | 9.7 | 20.9 | 0.00 | 0.00 | 0.00 | 67 | 1007.6 |
| 20260505065202 | 16 | 213 | 9.7 | 20.9 | 0.00 | 0.00 | 0.00 | 66 | 1007.5 |
| 20260505064704 | 16 | 198 | 9.7 | 24.1 | 0.00 | 0.00 | 0.00 | 66 | 1007.5 |
| 20260505064203 | 16 | 209 | 9.7 | 24.1 | 0.00 | 0.00 | 0.00 | 65 | 1007.5 |
| 20260505063702 | 16 | 203 | 9.7 | 19.3 | 0.00 | 0.00 | 0.00 | 65 | 1007.5 |
| 20260505063450 | 16 | 171 | 11.3 | 22.5 | 0.00 | 0.00 | 0.00 | 65 | 1007.5 |
| 20260505062701 | 16 | 187 | 11.3 | 22.5 | 0.00 | 0.00 | 0.00 | 65 | 1007.5 |
| 20260505062201 | 16 | 233 | 9.7 | 19.3 | 0.00 | 0.00 | 0.00 | 65 | 1007.6 |
| 20260505061702 | 16 | 209 | 9.7 | 20.9 | 0.00 | 0.00 | 0.00 | 65 | 1007.6 |
| 20260505061445 | 16 | 210 | 8.0 | 20.9 | 0.00 | 0.00 | 0.00 | 64 | 1007.6 |
| 20260505060701 | 16 | 226 | 8.0 | 17.7 | 0.00 | 0.00 | 0.00 | 64 | 1007.5 |
| 20260505060202 | 16 | 191 | 9.7 | 20.9 | 0.00 | 0.00 | 0.00 | 63 | 1007.5 |
| 20260505055702 | 17 | 196 | 11.3 | 20.9 | 0.00 | 0.00 | 0.00 | 63 | 1007.5 |
| 20260505055203 | 17 | 168 | 9.7 | 24.1 | 0.00 | 0.00 | 0.00 | 62 | 1007.5 |
| 20260505054704 | 17 | 198 | 11.3 | 24.1 | 0.00 | 0.00 | 0.00 | 62 | 1007.6 |
| 20260505054202 | 17 | 217 | 11.3 | 24.1 | 0.00 | 0.00 | 0.00 | 62 | 1007.7 |
| 20260505053702 | 17 | 185 | 11.3 | 24.1 | 0.00 | 0.00 | 0.00 | 62 | 1007.7 |
| 20260505053201 | 17 | 177 | 11.3 | 24.1 | 0.00 | 0.00 | 0.00 | 61 | 1007.6 |
| 20260505052703 | 17 | 194 | 11.3 | 25.7 | 0.00 | 0.00 | 0.00 | 61 | 1007.6 |
| 20260505052203 | 17 | 184 | 12.9 | 25.7 | 0.00 | 0.00 | 0.00 | 61 | 1007.7 |
| 20260505051703 | 17 | 208 | 12.9 | 25.7 | 0.00 | 0.00 | 0.00 | 61 | 1007.6 |
| 20260505051202 | 17 | 202 | 12.9 | 25.7 | 0.00 | 0.00 | 0.00 | 61 | 1007.7 |
| 20260505050700 | 17 | 192 | 12.9 | 25.7 | 0.00 | 0.00 | 0.00 | 60 | 1007.8 |
| 20260505050201 | 17 | 239 | 14.5 | 32.2 | 0.00 | 0.00 | 0.00 | 60 | 1007.9 |
| 20260505041702 | 17 | 184 | 11.3 | 32.2 | 0.00 | 0.00 | 0.00 | 59 | 1008.1 |
| 20260505041202 | 17 | 195 | 12.9 | 32.2 | 0.00 | 0.00 | 0.00 | 59 | 1008.1 |
| 20260505040702 | 17 | 219 | 12.9 | 29.0 | 0.00 | 0.00 | 0.00 | 59 | 1008.1 |
| 20260505040203 | 17 | 186 | 11.3 | 29.0 | 0.00 | 0.00 | 0.00 | 59 | 1008.2 |
| 20260505035703 | 17 | 188 | 9.7 | 22.5 | 0.00 | 0.00 | 0.00 | 59 | 1008.2 |
| 20260505035159 | 17 | 208 | 11.3 | 25.7 | 0.00 | 0.00 | 0.00 | 59 | 1008.2 |
| 20260505034949 | 17 | 190 | 9.7 | 25.7 | 0.00 | 0.00 | 0.00 | 59 | 1008.2 |
| 20260505034200 | 16 | 189 | 9.7 | 22.5 | 0.00 | 0.00 | 0.00 | 59 | 1008.3 |
| 20260505033947 | 16 | 223 | 9.7 | 22.5 | 0.00 | 0.00 | 0.00 | 59 | 1008.3 |
| 20260505033159 | 16 | 161 | 9.7 | 22.5 | 0.00 | 0.00 | 0.00 | 59 | 1008.2 |
| 20260505032700 | 16 | 200 | 8.0 | 19.3 | 0.00 | 0.00 | 0.00 | 60 | 1008.2 |
| 20260505032201 | 16 | 165 | 6.4 | 19.3 | 0.00 | 0.00 | 0.00 | 59 | 1008.4 |
| 20260505031706 | 16 | 180 | 6.4 | 17.7 | 0.00 | 0.00 | 0.00 | 59 | 1008.3 |
| 20260505031445 | 16 | 165 | 6.4 | 17.7 | 0.00 | 0.00 | 0.00 | 59 | 1008.4 |
| 20260505030652 | 16 | 180 | 6.4 | 20.9 | 0.00 | 0.00 | 0.00 | 59 | 1008.5 |
| 20260505030153 | 16 | 152 | 6.4 | 20.9 | 0.00 | 0.00 | 0.00 | 59 | 1008.5 |
| 20260505025651 | 16 | 190 | 6.4 | 16.1 | 0.00 | 0.00 | 0.00 | 58 | 1008.6 |
| 20260505025151 | 17 | 184 | 6.4 | 17.7 | 0.00 | 0.00 | 0.00 | 58 | 1008.6 |
| 20260505024652 | 17 | 198 | 6.4 | 17.7 | 0.00 | 0.00 | 0.00 | 57 | 1008.7 |
| 20260505024153 | 17 | 178 | 6.4 | 14.5 | 0.00 | 0.00 | 0.00 | 57 | 1008.6 |
| 20260505023650 | 17 | 182 | 6.4 | 14.5 | 0.00 | 0.00 | 0.00 | 56 | 1008.8 |
| 20260505023446 | 17 | 184 | 6.4 | 16.1 | 0.00 | 0.00 | 0.00 | 55 | 1008.8 |
| 20260505023158 | 17 | 165 | 6.4 | 16.1 | 0.00 | 0.00 | 0.00 | 55 | 1008.8 |
| 20260505022136 | 17 | 198 | 6.4 | 17.7 | 0.00 | 0.00 | 0.00 | 54 | 1008.9 |
| 20260505021917 | 17 | 174 | 6.4 | 17.7 | 0.00 | 0.00 | 0.00 | 53 | 1008.9 |
| 20260505021136 | 17 | 205 | 6.4 | 17.7 | 0.00 | 0.00 | 0.00 | 53 | 1008.8 |
| 20260505020634 | 17 | 208 | 6.4 | 17.7 | 0.00 | 0.00 | 0.00 | 52 | 1008.9 |
| 20260505020134 | 17 | 205 | 6.4 | 20.9 | 0.00 | 0.00 | 0.00 | 52 | 1008.8 |
| 20260505015914 | 17 | 191 | 6.4 | 20.9 | 0.00 | 0.00 | 0.00 | 52 | 1008.8 |
| 20260505015131 | 17 | 180 | 6.4 | 17.7 | 0.00 | 0.00 | 0.00 | 51 | 1008.8 |
| 20260505014632 | 17 | 207 | 6.4 | 17.7 | 0.00 | 0.00 | 0.00 | 51 | 1008.8 |
| 20260505014131 | 18 | 161 | 4.8 | 12.9 | 0.00 | 0.00 | 0.00 | 51 | 1008.8 |
| 20260505013630 | 18 | 171 | 6.4 | 16.1 | 0.00 | 0.00 | 0.00 | 50 | 1008.7 |
| 20260505013128 | 18 | 191 | 6.4 | 16.1 | 0.00 | 0.00 | 0.00 | 50 | 1008.8 |
| 20260505012630 | 18 | 183 | 4.8 | 17.7 | 0.00 | 0.00 | 0.00 | 49 | 1008.7 |
| 20260505012129 | 18 | 192 | 4.8 | 17.7 | 0.00 | 0.00 | 0.00 | 49 | 1008.6 |
| 20260505011913 | 18 | 196 | 4.8 | 16.1 | 0.00 | 0.00 | 0.00 | 48 | 1008.6 |
| 20260505011130 | 18 | 190 | 4.8 | 16.1 | 0.00 | 0.00 | 0.00 | 48 | 1008.5 |
| 20260505010630 | 18 | 178 | 4.8 | 16.1 | 0.00 | 0.00 | 0.00 | 48 | 1008.4 |
| 20260505010409 | 18 | 190 | 6.4 | 16.1 | 0.00 | 0.00 | 0.00 | 48 | 1008.2 |
| 20260505005628 | 18 | 216 | 6.4 | 20.9 | 0.00 | 0.00 | 0.00 | 47 | 1008.3 |
| 20260505005128 | 19 | 132 | 8.0 | 20.9 | 0.00 | 0.00 | 0.00 | 47 | 1008.3 |
| 20260505004630 | 19 | 173 | 8.0 | 20.9 | 0.00 | 0.00 | 0.00 | 47 | 1008.1 |
| 20260505004129 | 19 | 194 | 9.7 | 17.7 | 0.00 | 0.00 | 0.00 | 46 | 1008.1 |
| 20260505003630 | 19 | 168 | 11.3 | 30.6 | 0.00 | 0.00 | 0.00 | 46 | 1008.1 |
| 20260505003130 | 19 | 196 | 11.3 | 30.6 | 0.00 | 0.00 | 0.00 | 46 | 1008.0 |
| 20260505002630 | 19 | 164 | 9.7 | 22.5 | 0.00 | 0.00 | 0.00 | 46 | 1008.0 |
| 20260505002130 | 20 | 186 | 8.0 | 22.5 | 0.00 | 0.00 | 0.00 | 46 | 1007.9 |
| 20260505001845 | 20 | 193 | 8.0 | 24.1 | 0.00 | 0.00 | 0.00 | 46 | 1007.9 |
| 20260505001129 | 20 | 198 | 6.4 | 24.1 | 0.00 | 0.00 | 0.00 | 46 | 1007.7 |
| 20260505000629 | 20 | 179 | 6.4 | 16.1 | 0.00 | 0.00 | 0.00 | 47 | 1007.7 |
| 20260505000129 | 20 | 185 | 8.0 | 19.3 | 0.00 | 0.00 | 0.00 | 46 | 1007.6 |
| 20260504235629 | 20 | 213 | 9.7 | 22.5 | 0.00 | 0.00 | 0.00 | 46 | 1007.4 |
| 20260504235129 | 20 | 190 | 8.0 | 22.5 | 0.00 | 0.00 | 0.00 | 46 | 1007.4 |
| 20260504234629 | 20 | 207 | 6.4 | 22.5 | 0.00 | 0.00 | 0.00 | 46 | 1007.3 |
| 20260504234130 | 21 | 182 | 6.4 | 22.5 | 0.00 | 0.00 | 0.00 | 45 | 1007.2 |
| 20260504233908 | 21 | 191 | 8.0 | 22.5 | 0.00 | 0.00 | 0.00 | 44 | 1007.2 |
| 20260504233410 | 21 | 183 | 6.4 | 19.3 | 0.00 | 0.00 | 0.00 | 42 | 1007.2 |
| 20260504232630 | 22 | 171 | 6.4 | 22.5 | 0.00 | 0.00 | 0.00 | 33 | 1007.1 |
| 20260504232129 | 22 | 200 | 11.3 | 22.5 | 0.00 | 0.00 | 0.00 | 32 | 1007.1 |
| 20260504231629 | 22 | 213 | 11.3 | 19.3 | 0.00 | 0.00 | 0.00 | 32 | 1006.9 |
| 20260504231130 | 22 | 227 | 12.9 | 27.4 | 0.00 | 0.00 | 0.00 | 32 | 1006.9 |
| 20260504230630 | 22 | 241 | 12.9 | 27.4 | 0.00 | 0.00 | 0.00 | 32 | 1006.8 |
| 20260504230128 | 22 | 199 | 12.9 | 24.1 | 0.00 | 0.00 | 0.00 | 32 | 1006.9 |
| 20260504225630 | 22 | 182 | 12.9 | 25.7 | 0.00 | 0.00 | 0.00 | 32 | 1006.9 |
| 20260504225129 | 22 | 230 | 12.9 | 25.7 | 0.00 | 0.00 | 0.00 | 32 | 1006.8 |
| 20260504224912 | 22 | 0 | 11.3 | 22.5 | 0.00 | 0.00 | 0.00 | 31 | 1006.8 |
| 20260504224414 | 22 | 205 | 9.7 | 25.7 | 0.00 | 0.00 | 0.00 | 32 | 1006.8 |
| 20260504223630 | 23 | 0 | 11.3 | 25.7 | 0.00 | 0.00 | 0.00 | 31 | 1006.9 |
| 20260504223420 | 23 | 217 | 11.3 | 24.1 | 0.00 | 0.00 | 0.00 | 31 | 1006.8 |
| 20260504222629 | 23 | 248 | 12.9 | 27.4 | 0.00 | 0.00 | 0.00 | 31 | 1006.8 |
| 20260504222129 | 23 | 197 | 14.5 | 27.4 | 0.00 | 0.00 | 0.00 | 31 | 1006.9 |
| 20260504221630 | 23 | 0 | 14.5 | 29.0 | 0.00 | 0.00 | 0.00 | 31 | 1007.0 |
| 20260504221128 | 23 | 194 | 16.1 | 29.0 | 0.00 | 0.00 | 0.00 | 30 | 1006.9 |
| 20260504220917 | 23 | 251 | 14.5 | 27.4 | 0.00 | 0.00 | 0.00 | 30 | 1007.0 |
| 20260504220129 | 23 | 217 | 11.3 | 24.1 | 0.00 | 0.00 | 0.00 | 30 | 1006.9 |
| 20260504215630 | 23 | 174 | 12.9 | 27.4 | 0.00 | 0.00 | 0.00 | 30 | 1007.0 |
| 20260504215128 | 23 | 236 | 14.5 | 33.8 | 0.00 | 0.00 | 0.00 | 30 | 1007.0 |
| 20260504214628 | 23 | 219 | 16.1 | 33.8 | 0.00 | 0.00 | 0.00 | 30 | 1007.0 |
| 20260504214130 | 23 | 223 | 12.9 | 24.1 | 0.00 | 0.00 | 0.00 | 30 | 1007.1 |
| 20260504213629 | 23 | 238 | 9.7 | 24.1 | 0.00 | 0.00 | 0.00 | 30 | 1007.1 |
| 20260504213129 | 23 | 300 | 12.9 | 30.6 | 0.00 | 0.00 | 0.00 | 31 | 1007.2 |
| 20260504212628 | 23 | 225 | 16.1 | 30.6 | 0.00 | 0.00 | 0.00 | 30 | 1007.1 |
| 20260504212129 | 23 | 189 | 12.9 | 25.7 | 0.00 | 0.00 | 0.00 | 30 | 1007.1 |
| 20260504211629 | 23 | 254 | 14.5 | 27.4 | 0.00 | 0.00 | 0.00 | 30 | 1007.0 |
| 20260504211411 | 23 | 253 | 12.9 | 27.4 | 0.00 | 0.00 | 0.00 | 29 | 1007.0 |
| 20260504210629 | 23 | 200 | 11.3 | 20.9 | 0.00 | 0.00 | 0.00 | 30 | 1007.1 |
| 20260504210129 | 23 | 271 | 9.7 | 20.9 | 0.00 | 0.00 | 0.00 | 30 | 1007.1 |
| 20260504205628 | 23 | 222 | 11.3 | 27.4 | 0.00 | 0.00 | 0.00 | 30 | 1007.1 |
| 20260504205416 | 23 | 231 | 12.9 | 29.0 | 0.00 | 0.00 | 0.00 | 30 | 1007.2 |
| 20260504204915 | 23 | 212 | 14.5 | 30.6 | 0.00 | 0.00 | 0.00 | 31 | 1007.2 |
| 20260504204129 | 23 | 240 | 14.5 | 30.6 | 0.00 | 0.00 | 0.00 | 30 | 1007.1 |
| 20260504203628 | 23 | 182 | 12.9 | 27.4 | 0.00 | 0.00 | 0.00 | 29 | 1007.0 |
| 20260504203129 | 23 | 213 | 11.3 | 27.4 | 0.00 | 0.00 | 0.00 | 30 | 1007.1 |
| 20260504202913 | 23 | 221 | 11.3 | 22.5 | 0.00 | 0.00 | 0.00 | 30 | 1007.0 |
| 20260504202129 | 23 | 292 | 12.9 | 24.1 | 0.00 | 0.00 | 0.00 | 31 | 1007.2 |
| 20260504201629 | 23 | 220 | 12.9 | 29.0 | 0.00 | 0.00 | 0.00 | 30 | 1007.3 |
| 20260504201130 | 23 | 192 | 14.5 | 29.0 | 0.00 | 0.00 | 0.00 | 30 | 1007.2 |
| 20260504200630 | 23 | 223 | 16.1 | 29.0 | 0.00 | 0.00 | 0.00 | 30 | 1007.3 |
| 20260504200206 | 23 | 213 | 14.5 | 30.6 | 0.00 | 0.00 | 0.00 | 31 | 1007.2 |
| 20260504200150 | 23 | 257 | 14.5 | 29.0 | 0.00 | 0.00 | 0.00 | 31 | 1007.3 |
| 20260504195128 | 23 | 165 | 17.7 | 30.6 | 0.00 | 0.00 | 0.00 | 31 | 1007.5 |
| 20260504194629 | 23 | 252 | 14.5 | 29.0 | 0.00 | 0.00 | 0.00 | 31 | 1007.5 |
| 20260504194134 | 23 | 208 | 11.3 | 24.1 | 0.00 | 0.00 | 0.00 | 31 | 1007.4 |
| 20260504193632 | 23 | 187 | 11.3 | 25.7 | 0.00 | 0.00 | 0.00 | 31 | 1007.5 |
| 20260504193409 | 23 | 265 | 11.3 | 25.7 | 0.00 | 0.00 | 0.00 | 31 | 1007.6 |
| 20260504192630 | 23 | 210 | 12.9 | 29.0 | 0.00 | 0.00 | 0.00 | 31 | 1007.6 |
| 20260504192412 | 23 | 239 | 12.9 | 29.0 | 0.00 | 0.00 | 0.00 | 31 | 1007.8 |
| 20260504191628 | 23 | 189 | 14.5 | 27.4 | 0.00 | 0.00 | 0.00 | 32 | 1007.9 |
| 20260504191128 | 23 | 226 | 16.1 | 32.2 | 0.00 | 0.00 | 0.00 | 31 | 1007.9 |
| 20260504190910 | 23 | 230 | 14.5 | 32.2 | 0.00 | 0.00 | 0.00 | 31 | 1007.8 |
| 20260504190411 | 23 | 254 | 14.5 | 30.6 | 0.00 | 0.00 | 0.00 | 33 | 1008.0 |
| 20260504185629 | 23 | 250 | 16.1 | 33.8 | 0.00 | 0.00 | 0.00 | 32 | 1008.3 |
| 20260504185128 | 23 | 261 | 16.1 | 33.8 | 0.00 | 0.00 | 0.00 | 32 | 1008.4 |
| 20260504184630 | 22 | 200 | 16.1 | 29.0 | 0.00 | 0.00 | 0.00 | 33 | 1008.3 |
| 20260504184410 | 22 | 226 | 14.5 | 27.4 | 0.00 | 0.00 | 0.00 | 33 | 1008.4 |
| 20260504183632 | 22 | 232 | 14.5 | 38.6 | 0.00 | 0.00 | 0.00 | 33 | 1008.6 |
| 20260504183131 | 22 | 173 | 16.1 | 38.6 | 0.00 | 0.00 | 0.00 | 32 | 1008.4 |
| 20260504182631 | 22 | 210 | 16.1 | 32.2 | 0.00 | 0.00 | 0.00 | 32 | 1008.5 |
| 20260504182131 | 22 | 196 | 14.5 | 32.2 | 0.00 | 0.00 | 0.00 | 32 | 1008.6 |
| 20260504181630 | 22 | 234 | 14.5 | 30.6 | 0.00 | 0.00 | 0.00 | 32 | 1008.6 |
| 20260504181129 | 22 | 215 | 16.1 | 30.6 | 0.00 | 0.00 | 0.00 | 33 | 1008.7 |